Time;durP1;ratioP1;P1;durP2;ratioP2;P2;SDS_P1;SDS_P2;PMS_P1;PMS_P2;Temp;Humidity;BMP_temperature;BMP_pressure;BME280_temperature;BME280_humidity;BME280_pressure;Samples;Min_cycle;Max_cycle;Signal;HPM_P1;HPM_P2
2022/03/06 00:50:43;;;;;;;11.73;6.20;;;;;;;8.16;78.62;99030.69;4787193;29;20264;-95
2022/03/06 01:15:55;;;;;;;11.13;5.10;;;;;;;7.70;81.27;99019.69;4708383;30;20195;-92
2022/03/06 01:18:38;;;;;;;;;;;;;;;;;;;;;
2022/03/06 01:25:36;;;;;;;11.03;5.23;;;;;;;7.82;79.71;99011.31;4698402;30;20707;-94
2022/03/06 01:36:41;;;;;;;10.97;5.10;;;;;;;7.61;80.97;99003.56;4644454;30;20307;-93
2022/03/06 01:43:28;;;;;;;10.27;4.60;;;;;;;7.59;81.18;99001.03;4613768;31;20388;-93
2022/03/06 01:47:26;;;;;;;16.20;5.40;;;;;;;7.39;81.51;99006.22;4613679;31;20659;-94
2022/03/06 01:49:50;;;;;;;8.90;3.83;;;;;;;7.34;80.35;98998.59;4686536;30;20227;-94
2022/03/06 01:56:29;;;;;;;;;;;;;;;;;;;;;
2022/03/06 01:59:46;;;;;;;8.43;4.33;;;;;;;6.74;83.97;99004.53;4683597;30;20570;-94
2022/03/06 02:12:26;;;;;;;12.93;5.07;;;;;;;6.89;82.29;99004.84;4771531;29;20233;-90
2022/03/06 02:14:56;;;;;;;12.73;5.57;;;;;;;6.81;83.23;99013.78;4843735;29;20605;-91
2022/03/06 02:20:39;;;;;;;12.23;5.33;;;;;;;6.85;82.96;99008.47;4950970;29;20185;-91
2022/03/06 02:26:39;;;;;;;10.17;4.70;;;;;;;7.20;81.57;99010.50;4930445;29;20193;-92
2022/03/06 02:36:28;;;;;;;9.23;4.77;;;;;;;7.21;81.30;99006.97;4802266;29;20240;-92
2022/03/06 02:42:50;;;;;;;8.00;3.53;;;;;;;6.64;82.79;99005.78;4788968;29;20754;-91
2022/03/06 02:45:20;;;;;;;8.10;4.00;;;;;;;6.46;83.85;99010.84;4767758;30;20210;-89
2022/03/06 02:48:26;;;;;;;10.23;4.80;;;;;;;6.28;85.44;99016.75;4789005;30;20195;-91
2022/03/06 02:51:12;;;;;;;9.87;4.30;;;;;;;6.46;84.80;99011.72;4868953;29;20210;-92
2022/03/06 02:53:37;;;;;;;11.20;5.80;;;;;;;6.70;84.32;99009.94;4903859;29;20189;-90
2022/03/06 02:56:03;;;;;;;9.47;5.60;;;;;;;6.78;83.55;99010.47;4940246;29;20187;-90
2022/03/06 02:58:29;;;;;;;8.17;3.90;;;;;;;6.66;83.23;99014.38;4957302;29;20181;-89
2022/03/06 03:00:54;;;;;;;9.43;5.40;;;;;;;6.43;85.31;99017.03;4957002;29;20655;-90
2022/03/06 03:03:32;;;;;;;;;;;;;;;;;;;;;
2022/03/06 03:05:58;;;;;;;8.40;3.80;;;;;;;6.70;83.75;99015.13;4957797;29;20173;-89
2022/03/06 03:08:24;;;;;;;10.23;5.33;;;;;;;6.65;84.07;99006.66;4939575;28;20316;-89
2022/03/06 03:10:58;;;;;;;11.33;4.67;;;;;;;6.36;85.29;99017.31;4956796;29;20548;-90
2022/03/06 03:13:31;;;;;;;7.87;4.97;;;;;;;6.53;85.05;99020.97;4957353;29;20255;-90
2022/03/06 03:15:57;;;;;;;8.00;4.50;;;;;;;6.56;84.36;99017.41;4940039;29;20172;-90
2022/03/06 03:18:23;;;;;;;11.30;4.53;;;;;;;6.70;83.68;99015.13;4939929;29;20181;-90
2022/03/06 03:20:50;;;;;;;8.07;3.67;;;;;;;6.56;83.90;99020.00;4939994;29;20191;-90
2022/03/06 03:23:15;;;;;;;6.13;3.43;;;;;;;6.38;84.08;99021.56;4956603;29;20538;-89
2022/03/06 03:25:41;;;;;;;9.80;4.83;;;;;;;6.41;84.58;99029.25;4956803;29;20252;-90
2022/03/06 03:28:07;;;;;;;9.30;4.27;;;;;;;6.50;83.81;99022.88;4939639;29;20192;-89
2022/03/06 03:30:32;;;;;;;15.10;4.83;;;;;;;6.51;82.93;99025.41;4956580;29;20200;-89
2022/03/06 03:32:58;;;;;;;10.23;4.57;;;;;;;6.44;83.58;99034.34;4939476;29;20181;-90
2022/03/06 03:35:24;;;;;;;11.53;4.27;;;;;;;6.45;82.88;99033.44;4939464;29;20181;-90
2022/03/06 03:37:49;;;;;;;15.53;5.07;;;;;;;6.25;84.22;99041.16;4956518;29;20188;-89
2022/03/06 03:40:15;;;;;;;9.90;4.83;;;;;;;6.01;85.83;99039.41;4956512;29;20188;-90
2022/03/06 03:42:41;;;;;;;7.27;4.40;;;;;;;6.15;84.17;99037.19;4956085;29;20606;-89
2022/03/06 03:45:07;;;;;;;7.03;4.53;;;;;;;5.72;86.04;99037.81;4956058;29;20612;-90
2022/03/06 03:47:33;;;;;;;7.63;4.67;;;;;;;5.87;85.67;99037.31;4939250;29;20215;-89
2022/03/06 03:49:59;;;;;;;5.57;3.57;;;;;;;5.86;85.21;99034.78;4939098;29;20219;-89
2022/03/06 03:52:24;;;;;;;9.30;4.23;;;;;;;5.90;84.88;99037.19;4956307;29;20177;-90
2022/03/06 03:54:50;;;;;;;7.27;4.23;;;;;;;5.96;85.52;99046.53;4956256;29;20259;-89
2022/03/06 03:57:15;;;;;;;17.33;5.97;;;;;;;6.39;83.54;99046.69;4955961;29;20185;-90
2022/03/06 03:59:42;;;;;;;11.23;4.57;;;;;;;6.06;84.32;99040.97;4955869;29;20180;-90
2022/03/06 04:02:07;;;;;;;19.73;4.90;;;;;;;6.19;83.18;99037.00;4955987;29;20176;-90
2022/03/06 04:04:33;;;;;;;7.43;4.50;;;;;;;6.19;83.37;99033.56;4939073;29;20247;-90
2022/03/06 04:07:00;;;;;;;7.50;3.40;;;;;;;6.49;82.75;99035.03;4956036;29;20182;-89
2022/03/06 04:09:26;;;;;;;7.47;2.77;;;;;;;6.23;82.39;99035.16;4939021;29;20292;-89
2022/03/06 04:11:52;;;;;;;11.87;4.77;;;;;;;6.31;82.30;99040.94;4938891;29;20271;-90
2022/03/06 04:14:17;;;;;;;6.40;3.73;;;;;;;6.09;83.11;99035.66;4955892;29;20239;-90
2022/03/06 04:16:43;;;;;;;7.93;3.77;;;;;;;6.27;82.77;99036.72;4938814;29;20653;-90
2022/03/06 04:19:09;;;;;;;6.43;3.70;;;;;;;6.29;82.30;99039.28;4955084;29;20276;-90
2022/03/06 04:21:35;;;;;;;9.07;3.80;;;;;;;6.38;82.07;99045.00;4938204;29;20287;-90
2022/03/06 04:24:01;;;;;;;10.90;4.20;;;;;;;6.42;81.76;99040.53;4938645;29;20217;-90
2022/03/06 04:26:26;;;;;;;8.60;4.53;;;;;;;6.39;81.48;99044.09;4956248;29;20177;-91
2022/03/06 04:28:57;;;;;;;11.77;4.47;;;;;;;6.36;81.11;99036.41;4938690;29;20303;-90
2022/03/06 04:31:23;;;;;;;5.53;3.47;;;;;;;6.40;81.12;99043.16;4938804;29;20177;-90
2022/03/06 04:33:48;;;;;;;9.63;3.97;;;;;;;6.46;80.50;99042.94;4938755;29;20235;-91
2022/03/06 04:36:14;;;;;;;6.90;3.80;;;;;;;6.42;81.14;99050.94;4938913;29;20199;-89
2022/03/06 04:38:41;;;;;;;7.50;3.33;;;;;;;6.39;81.04;99048.44;4939236;29;20185;-91
2022/03/06 04:41:07;;;;;;;6.90;4.40;;;;;;;6.27;80.98;99041.06;4955434;29;20195;-89
2022/03/06 04:43:33;;;;;;;7.83;3.97;;;;;;;6.36;81.59;99041.59;4938684;29;20303;-90
2022/03/06 04:46:02;;;;;;;7.77;3.63;;;;;;;6.51;80.95;99035.81;4955861;29;20216;-91
2022/03/06 04:48:28;;;;;;;6.37;3.20;;;;;;;6.33;80.98;99036.50;4938709;29;20173;-91
2022/03/06 04:50:54;;;;;;;11.33;4.83;;;;;;;6.29;81.45;99036.69;4954370;29;20187;-91
2022/03/06 04:53:19;;;;;;;8.20;3.90;;;;;;;6.14;82.60;99036.34;4955279;29;20244;-90
2022/03/06 04:55:45;;;;;;;10.70;5.03;;;;;;;6.04;83.07;99034.97;4938310;29;20176;-91
2022/03/06 04:58:11;;;;;;;6.90;2.90;;;;;;;6.38;81.77;99031.13;4938432;29;20212;-90
2022/03/06 05:00:37;;;;;;;9.30;4.20;;;;;;;6.26;81.29;99032.44;4938360;29;20184;-90
2022/03/06 05:03:03;;;;;;;11.80;5.30;;;;;;;6.06;82.17;99033.16;4955461;29;20185;-90
2022/03/06 05:05:28;;;;;;;7.60;3.57;;;;;;;6.30;81.37;99036.63;4938311;29;20192;-90
2022/03/06 05:07:54;;;;;;;20.87;4.00;;;;;;;6.12;82.33;99034.69;4955292;29;20213;-90
2022/03/06 05:10:20;;;;;;;7.90;3.77;;;;;;;5.90;83.24;99036.34;4955017;29;20229;-90
2022/03/06 05:12:45;;;;;;;11.63;3.47;;;;;;;6.30;81.24;99033.16;4955710;29;20181;-91
2022/03/06 05:15:12;;;;;;;6.03;3.43;;;;;;;6.34;81.47;99038.19;4938350;29;20254;-89
2022/03/06 05:17:42;;;;;;;8.17;4.13;;;;;;;6.43;81.41;99031.78;4955463;29;20270;-90
2022/03/06 05:20:10;;;;;;;6.80;3.87;;;;;;;6.65;79.97;99030.09;4954940;29;20187;-90
2022/03/06 05:22:36;;;;;;;9.73;4.33;;;;;;;6.64;80.17;99034.44;4955507;29;20195;-89
2022/03/06 05:25:03;;;;;;;7.27;3.37;;;;;;;6.61;80.15;99041.50;4954798;29;20192;-89
2022/03/06 05:27:28;;;;;;;9.67;4.63;;;;;;;6.65;80.07;99037.91;4955153;29;20181;-89
2022/03/06 05:29:54;;;;;;;12.47;3.83;;;;;;;6.51;80.87;99042.78;4937985;29;20205;-89
2022/03/06 05:32:20;;;;;;;7.37;4.83;;;;;;;6.59;80.59;99041.59;4956899;28;20181;-90
2022/03/06 05:34:45;;;;;;;11.83;3.73;;;;;;;6.72;79.98;99041.97;4958592;29;20186;-90
2022/03/06 05:37:11;;;;;;;6.93;3.47;;;;;;;6.66;80.33;99045.66;4941543;29;20269;-90
2022/03/06 05:39:36;;;;;;;8.33;3.33;;;;;;;6.58;80.86;99042.47;4958790;29;20642;-90
2022/03/06 05:42:02;;;;;;;4.43;2.73;;;;;;;6.53;80.55;99047.00;4941885;29;20349;-90
2022/03/06 05:44:28;;;;;;;10.33;5.73;;;;;;;6.13;81.92;99055.44;4941377;29;20236;-88
2022/03/06 05:46:53;;;;;;;8.40;3.87;;;;;;;6.20;82.93;99048.28;4958338;29;20208;-89
2022/03/06 05:49:19;;;;;;;8.47;3.93;;;;;;;6.37;82.17;99056.31;4958219;29;20663;-90
2022/03/06 05:51:45;;;;;;;9.90;5.30;;;;;;;6.32;82.07;99050.41;4958192;29;20639;-89
2022/03/06 05:54:10;;;;;;;6.90;3.83;;;;;;;6.55;81.91;99047.81;4958113;29;20264;-89
2022/03/06 05:56:36;;;;;;;8.50;3.93;;;;;;;6.57;80.49;99039.94;4958410;29;20194;-88
2022/03/06 05:59:03;;;;;;;6.10;3.20;;;;;;;6.40;81.64;99050.13;4941582;29;20535;-90
2022/03/06 06:01:32;;;;;;;8.33;3.93;;;;;;;6.58;80.90;99052.03;4958104;29;20619;-89
2022/03/06 06:03:59;;;;;;;13.43;6.13;;;;;;;6.73;80.22;99052.31;4957999;29;20185;-91
2022/03/06 06:06:26;;;;;;;6.80;4.20;;;;;;;6.80;80.53;99047.72;4957993;29;20192;-90
2022/03/06 06:08:51;;;;;;;8.53;4.40;;;;;;;6.71;80.84;99059.34;4958126;29;20279;-89
2022/03/06 06:11:18;;;;;;;8.50;3.90;;;;;;;6.70;80.07;99057.66;4957994;29;20183;-89
2022/03/06 06:13:44;;;;;;;9.53;4.60;;;;;;;6.62;80.19;99064.91;4957893;29;20181;-89
2022/03/06 06:16:09;;;;;;;8.53;4.90;;;;;;;6.48;81.42;99068.91;4957787;29;20251;-92
2022/03/06 06:18:35;;;;;;;11.07;4.47;;;;;;;6.59;80.96;99070.22;4957748;29;20267;-92
2022/03/06 06:21:00;;;;;;;14.90;4.90;;;;;;;6.60;81.00;99074.50;4957691;29;20191;-92
2022/03/06 06:23:26;;;;;;;27.70;5.07;;;;;;;6.65;80.51;99076.97;4957715;29;20188;-91
2022/03/06 06:25:51;;;;;;;14.47;5.27;;;;;;;6.64;80.97;99078.72;4957716;29;20184;-93
2022/03/06 06:28:17;;;;;;;20.00;5.97;;;;;;;6.67;80.37;99091.63;4957966;29;20188;-93
2022/03/06 06:30:42;;;;;;;7.97;4.87;;;;;;;6.55;80.44;99075.63;4957512;29;20216;-92
2022/03/06 06:33:09;;;;;;;7.53;4.70;;;;;;;6.39;81.40;99084.91;4940705;29;20173;-94
2022/03/06 06:35:34;;;;;;;15.73;6.37;;;;;;;6.33;81.58;99088.56;4940646;29;20267;-93
2022/03/06 06:38:01;;;;;;;12.63;6.10;;;;;;;6.51;81.67;99087.91;4957533;29;20644;-92
2022/03/06 06:40:26;;;;;;;10.03;5.13;;;;;;;6.57;80.69;99082.47;4957528;29;20173;-92
2022/03/06 06:42:52;;;;;;;6.70;3.13;;;;;;;6.54;80.93;99082.56;4957606;28;20184;-93
2022/03/06 06:45:18;;;;;;;9.27;4.90;;;;;;;6.35;81.36;99081.53;4939926;29;20297;-93
2022/03/06 06:47:43;;;;;;;12.43;5.90;;;;;;;6.36;82.25;99093.66;4957538;29;20209;-92
2022/03/06 06:50:10;;;;;;;12.77;6.97;;;;;;;6.36;81.48;99088.47;4957477;29;20212;-92
2022/03/06 06:52:35;;;;;;;13.17;5.67;;;;;;;6.32;82.10;99083.41;4957265;29;20190;-93
2022/03/06 06:55:01;;;;;;;17.53;6.03;;;;;;;6.19;82.49;99077.78;4957241;29;20180;-92
2022/03/06 06:57:26;;;;;;;8.30;4.57;;;;;;;6.12;82.60;99074.56;4941165;29;20180;-93
2022/03/06 06:59:52;;;;;;;13.27;5.00;;;;;;;6.17;83.03;99085.66;4957084;29;20520;-93
2022/03/06 07:02:18;;;;;;;8.57;5.30;;;;;;;6.01;83.79;99083.66;4957124;29;20682;-93
2022/03/06 07:04:43;;;;;;;9.83;4.73;;;;;;;5.74;84.64;99087.19;4940348;29;20278;-92
2022/03/06 07:07:09;;;;;;;8.77;4.77;;;;;;;5.83;84.37;99084.25;4940152;29;20625;-92
2022/03/06 07:09:34;;;;;;;10.47;4.10;;;;;;;5.94;83.45;99084.78;4956899;29;20218;-93
2022/03/06 07:11:59;;;;;;;11.00;4.67;;;;;;;5.84;84.23;99079.03;4957525;29;20193;-93
2022/03/06 07:14:25;;;;;;;8.43;3.77;;;;;;;5.97;83.94;99082.06;4956738;29;20183;-94
2022/03/06 07:16:50;;;;;;;9.17;4.40;;;;;;;5.69;84.45;99078.66;4956846;29;20237;-92
2022/03/06 07:19:17;;;;;;;8.23;4.40;;;;;;;5.61;85.36;99075.50;4956796;29;20204;-95
2022/03/06 07:21:44;;;;;;;8.07;4.20;;;;;;;5.84;83.81;99073.81;4939827;29;20184;-92
2022/03/06 07:24:10;;;;;;;8.87;4.40;;;;;;;5.75;84.37;99081.06;4956720;29;20169;-92
2022/03/06 07:26:35;;;;;;;7.07;3.43;;;;;;;5.86;84.56;99076.38;4939861;29;20193;-93
2022/03/06 07:29:01;;;;;;;13.70;6.40;;;;;;;6.05;84.01;99077.44;4939710;29;20207;-93
2022/03/06 07:31:27;;;;;;;6.10;4.33;;;;;;;6.08;83.42;99077.31;4939821;29;20563;-93
2022/03/06 07:33:52;;;;;;;11.30;3.63;;;;;;;5.78;84.14;99079.22;4956608;29;20183;-93
2022/03/06 07:36:18;;;;;;;11.67;5.87;;;;;;;5.86;84.01;99085.03;4939625;29;20179;-93
2022/03/06 07:38:43;;;;;;;8.17;5.00;;;;;;;5.76;83.53;99085.38;4956464;29;20267;-92
2022/03/06 07:41:09;;;;;;;9.73;5.03;;;;;;;5.53;84.91;99083.53;4956869;29;20194;-92
2022/03/06 07:43:35;;;;;;;16.83;6.13;;;;;;;5.71;84.28;99076.88;4956344;29;20588;-93
2022/03/06 07:46:01;;;;;;;13.87;6.33;;;;;;;5.94;83.19;99075.22;4939458;29;20184;-93
2022/03/06 07:48:27;;;;;;;9.37;5.20;;;;;;;5.71;83.85;99088.16;4939320;29;20183;-92
2022/03/06 07:50:52;;;;;;;12.87;6.57;;;;;;;5.69;84.16;99083.88;4956712;29;20208;-92
2022/03/06 07:53:18;;;;;;;13.30;5.47;;;;;;;5.96;83.14;99075.16;4956130;29;20518;-91
2022/03/06 07:55:43;;;;;;;9.90;5.17;;;;;;;5.81;83.18;99079.13;4955179;28;20181;-92
2022/03/06 07:58:09;;;;;;;12.27;3.87;;;;;;;5.85;83.00;99080.72;4956565;29;20278;-93
2022/03/06 08:00:34;;;;;;;11.83;5.03;;;;;;;5.90;82.81;99078.81;4939123;29;20188;-91
2022/03/06 08:03:00;;;;;;;8.97;3.90;;;;;;;5.86;83.10;99086.78;4939106;29;20177;-92
2022/03/06 08:05:25;;;;;;;9.17;3.87;;;;;;;5.81;83.45;99084.31;4956091;29;20189;-93
2022/03/06 08:07:51;;;;;;;11.60;3.17;;;;;;;5.67;83.61;99081.31;4940007;29;20200;-93
2022/03/06 08:10:16;;;;;;;10.47;3.73;;;;;;;5.96;82.91;99078.63;4939209;29;20215;-92
2022/03/06 08:12:42;;;;;;;10.53;3.97;;;;;;;6.01;82.75;99070.66;4955729;29;20182;-91
2022/03/06 08:15:08;;;;;;;6.87;3.33;;;;;;;5.86;83.04;99077.25;4955776;29;20176;-91
2022/03/06 08:17:35;;;;;;;9.73;4.47;;;;;;;5.63;83.56;99071.09;4938869;29;20674;-92
2022/03/06 08:20:01;;;;;;;12.00;5.50;;;;;;;5.42;83.95;99077.84;4955655;29;20717;-91
2022/03/06 08:22:27;;;;;;;9.73;3.93;;;;;;;5.78;83.35;99080.97;4955587;29;20199;-91
2022/03/06 08:24:54;;;;;;;12.40;4.07;;;;;;;5.91;83.06;99071.88;4938579;29;20627;-91
2022/03/06 08:27:21;;;;;;;8.17;3.73;;;;;;;5.95;82.78;99082.09;4955508;29;20207;-93
2022/03/06 08:29:47;;;;;;;8.87;4.10;;;;;;;5.94;82.27;99088.22;4938694;29;20201;-91
2022/03/06 08:32:13;;;;;;;9.27;3.03;;;;;;;5.88;82.57;99084.97;4938572;29;20694;-94
2022/03/06 08:34:38;;;;;;;7.40;3.33;;;;;;;5.78;83.57;99081.81;4938551;29;20281;-92
2022/03/06 08:37:04;;;;;;;5.47;3.07;;;;;;;5.81;83.52;99076.53;4955719;29;20181;-93
2022/03/06 08:39:30;;;;;;;4.67;2.40;;;;;;;5.85;83.62;99072.94;4955513;29;20209;-93
2022/03/06 08:41:55;;;;;;;15.63;4.93;;;;;;;5.81;83.70;99078.25;4938590;29;20199;-94
2022/03/06 08:44:21;;;;;;;11.80;5.53;;;;;;;5.98;82.70;99066.41;4955303;29;20203;-93
2022/03/06 08:46:47;;;;;;;6.37;3.90;;;;;;;6.01;82.55;99081.91;4954600;29;20646;-93
2022/03/06 08:49:15;;;;;;;9.83;3.90;;;;;;;6.10;82.24;99075.53;4938694;29;20705;-94
2022/03/06 08:51:41;;;;;;;11.03;4.40;;;;;;;5.92;83.18;99076.19;4938680;29;20198;-95
2022/03/06 08:54:15;;;;;;;7.73;4.63;;;;;;;5.88;82.18;99074.56;4938647;29;20187;-95
2022/03/06 08:56:50;;;;;;;10.13;3.37;;;;;;;5.73;82.86;99070.72;4955584;29;20609;-94
2022/03/06 08:59:21;;;;;;;8.03;4.17;;;;;;;5.62;83.95;99072.84;4938804;29;20170;-95
2022/03/06 09:02:08;;;;;;;7.63;4.23;;;;;;;5.53;84.70;99071.38;4938666;29;20299;-95
2022/03/06 09:04:47;;;;;;;4.87;2.80;;;;;;;5.81;83.75;99071.31;4938821;29;20207;-95
2022/03/06 09:07:24;;;;;;;4.77;2.83;;;;;;;5.95;82.56;99065.66;4940083;29;20196;-95
2022/03/06 09:10:04;;;;;;;;;;;;;;;;;;;;;
2022/03/06 09:12:49;;;;;;;5.00;3.87;;;;;;;5.63;84.42;99058.09;4960820;29;20171;-95
2022/03/06 09:15:20;;;;;;;8.57;3.53;;;;;;;5.52;84.85;99068.84;4942907;29;20165;-94
2022/03/06 09:21:15;;;;;;;5.33;2.30;;;;;;;5.96;83.48;99055.19;4935771;29;20671;-94
2022/03/06 09:23:46;;;;;;;12.70;4.40;;;;;;;5.87;83.04;99071.13;4942611;29;20191;-95
2022/03/06 09:26:51;;;;;;;;;;;;;;;;;;;;;
2022/03/06 09:29:17;;;;;;;8.03;2.63;;;;;;;5.81;83.72;99065.25;4958821;29;20222;-93
2022/03/06 09:31:45;;;;;;;3.47;2.07;;;;;;;5.77;83.56;99077.50;4942169;29;20191;-92
2022/03/06 09:34:11;;;;;;;5.57;3.10;;;;;;;5.91;83.36;99071.88;4942340;29;20640;-93
2022/03/06 09:36:49;;;;;;;6.27;3.17;;;;;;;6.02;83.26;99065.41;4942128;29;20230;-94
2022/03/06 09:39:15;;;;;;;3.53;2.30;;;;;;;6.08;82.44;99072.13;4941970;29;20184;-93
2022/03/06 09:41:45;;;;;;;6.17;3.67;;;;;;;6.25;81.95;99074.13;4942006;29;20274;-94
2022/03/06 09:44:12;;;;;;;5.57;1.97;;;;;;;6.28;81.76;99061.00;4942203;29;20203;-94
2022/03/06 09:46:39;;;;;;;3.37;2.07;;;;;;;6.01;82.34;99062.84;4942351;29;20266;-93
2022/03/06 09:49:06;;;;;;;10.10;2.63;;;;;;;5.97;82.69;99064.72;4958815;29;20255;-93
2022/03/06 09:51:38;;;;;;;4.23;2.93;;;;;;;6.04;82.99;99058.38;4941550;29;20292;-94
2022/03/06 09:54:05;;;;;;;10.83;3.67;;;;;;;6.30;82.55;99062.66;4941739;29;20635;-93
2022/03/06 09:56:31;;;;;;;3.47;2.43;;;;;;;6.12;82.06;99056.34;4958480;29;20238;-92
2022/03/06 09:59:02;;;;;;;5.30;2.70;;;;;;;6.13;82.51;99054.63;4958700;29;20185;-91
2022/03/06 10:01:27;;;;;;;5.73;2.37;;;;;;;5.84;83.29;99062.56;4941681;29;20175;-93
2022/03/06 10:03:53;;;;;;;6.17;2.97;;;;;;;6.06;82.72;99066.13;4941657;29;20183;-93
2022/03/06 10:06:19;;;;;;;4.80;2.67;;;;;;;6.13;81.82;99059.81;4958273;29;20627;-94
2022/03/06 10:08:44;;;;;;;7.67;3.93;;;;;;;5.99;83.30;99049.03;4958092;29;20492;-92
2022/03/06 10:11:12;;;;;;;6.13;2.03;;;;;;;5.95;83.19;99050.03;4958134;29;20212;-94
2022/03/06 10:13:40;;;;;;;7.77;4.57;;;;;;;6.11;82.89;99051.19;4941262;29;20188;-93
2022/03/06 10:16:09;;;;;;;6.90;3.73;;;;;;;6.15;82.66;99039.78;4941262;29;20181;-92
2022/03/06 10:18:48;;;;;;;5.87;2.70;;;;;;;5.83;83.51;99040.91;4957338;28;20662;-93
2022/03/06 10:21:20;;;;;;;5.57;2.63;;;;;;;5.83;84.64;99040.03;4941042;29;20327;-92
2022/03/06 10:23:48;;;;;;;5.50;3.07;;;;;;;6.17;83.26;99040.56;4940970;29;20316;-91
2022/03/06 10:26:17;;;;;;;8.87;3.10;;;;;;;6.06;83.60;99032.31;4957935;29;20501;-91
2022/03/06 10:28:48;;;;;;;6.93;3.50;;;;;;;6.39;83.35;99025.88;4940713;29;20202;-92
2022/03/06 10:31:14;;;;;;;3.13;1.73;;;;;;;6.37;82.26;99022.47;4957976;29;20169;-92
2022/03/06 10:33:40;;;;;;;5.23;3.20;;;;;;;6.19;82.86;99028.34;4957819;29;20184;-91
2022/03/06 10:36:11;;;;;;;5.83;2.83;;;;;;;6.12;83.33;99029.47;4957772;29;20181;-91
2022/03/06 10:38:37;;;;;;;9.33;3.23;;;;;;;6.18;83.23;99026.66;4958014;29;20200;-92
2022/03/06 10:41:17;;;;;;;7.27;3.30;;;;;;;6.04;83.04;99028.91;4957375;29;20180;-89
2022/03/06 10:43:43;;;;;;;8.73;3.33;;;;;;;6.19;82.39;99025.75;4940774;29;20204;-90
2022/03/06 10:46:16;;;;;;;8.30;3.30;;;;;;;6.26;82.74;99027.25;4957302;29;20212;-89
2022/03/06 10:48:57;;;;;;;4.77;2.50;;;;;;;6.50;81.73;99021.09;4957442;29;20204;-89
2022/03/06 10:51:26;;;;;;;4.47;2.03;;;;;;;6.22;82.12;99027.38;4940363;29;20176;-90
2022/03/06 10:53:54;;;;;;;5.73;2.83;;;;;;;6.00;83.25;99022.13;4957107;29;20168;-89
2022/03/06 10:56:20;;;;;;;5.70;2.97;;;;;;;5.82;84.22;99014.94;4957481;29;20248;-89
2022/03/06 10:58:47;;;;;;;6.97;4.03;;;;;;;6.11;83.61;99004.34;4940036;29;20173;-88
2022/03/06 11:01:14;;;;;;;6.17;3.33;;;;;;;6.17;83.35;98997.19;4957209;29;20576;-88
2022/03/06 11:03:40;;;;;;;7.00;3.27;;;;;;;6.12;83.30;98998.25;4956933;29;20166;-89
2022/03/06 11:06:07;;;;;;;2.20;1.30;;;;;;;6.38;82.85;98981.66;4940257;29;20526;-88
2022/03/06 11:08:34;;;;;;;4.33;2.20;;;;;;;6.17;83.61;98988.53;4956778;29;20176;-88
2022/03/06 11:11:03;;;;;;;5.87;2.87;;;;;;;6.19;83.73;98997.13;4939768;29;20554;-88
2022/03/06 11:13:29;;;;;;;6.10;3.77;;;;;;;6.47;82.87;98987.34;4956942;29;20623;-88
2022/03/06 11:15:55;;;;;;;5.60;2.63;;;;;;;6.45;82.15;98986.56;4956623;29;20188;-88
2022/03/06 11:18:24;;;;;;;7.33;2.90;;;;;;;6.39;82.69;98984.22;4956631;29;20599;-88
2022/03/06 11:20:49;;;;;;;13.57;4.13;;;;;;;6.62;82.01;98993.75;4956535;29;20168;-88
2022/03/06 11:23:29;;;;;;;15.67;2.63;;;;;;;6.43;82.41;98990.13;4939638;29;20672;-88
2022/03/06 11:26:06;;;;;;;6.00;3.43;;;;;;;6.34;83.10;98986.13;4956763;29;20161;-88
2022/03/06 11:28:50;;;;;;;5.40;2.10;;;;;;;6.49;81.94;98988.16;4956980;29;20165;-88
2022/03/06 11:31:16;;;;;;;7.17;3.83;;;;;;;6.67;81.90;98982.25;4956474;28;20228;-88
2022/03/06 11:33:42;;;;;;;5.30;3.03;;;;;;;6.74;80.89;98975.88;4939467;29;20193;-89
2022/03/06 11:36:20;;;;;;;3.80;2.23;;;;;;;6.55;81.26;98964.47;4956601;29;20181;-89
2022/03/06 11:38:48;;;;;;;6.80;3.17;;;;;;;6.51;81.49;98956.84;4956648;29;20184;-90
2022/03/06 11:41:14;;;;;;;7.23;3.43;;;;;;;6.66;81.04;98961.44;4939424;29;20188;-90
2022/03/06 11:43:50;;;;;;;5.83;3.03;;;;;;;6.75;80.23;98961.94;4956245;29;20268;-90
2022/03/06 11:46:22;;;;;;;4.23;1.77;;;;;;;6.68;80.62;98960.47;4939417;29;20235;-91
2022/03/06 11:48:48;;;;;;;7.67;2.63;;;;;;;6.62;80.81;98965.09;4956382;29;20261;-91
2022/03/06 11:51:17;;;;;;;4.70;2.37;;;;;;;6.79;80.63;98955.69;4939588;29;20279;-92
2022/03/06 11:54:05;;;;;;;8.27;3.27;;;;;;;6.90;79.97;98957.03;4939722;29;20285;-93
2022/03/06 11:57:23;;;;;;;;;;;;;;;;;;;;;
2022/03/06 12:07:03;;;;;;;5.53;2.50;;;;;;;6.72;80.15;98959.47;4805573;29;20280;-92
2022/03/06 12:10:19;;;;;;;;;;;;;;;;;;;;;
2022/03/06 12:13:00;;;;;;;3.60;1.63;;;;;;;6.55;80.79;98954.06;4774493;29;20221;-93
2022/03/06 12:16:04;;;;;;;10.17;3.30;;;;;;;6.56;81.07;98954.91;4866432;29;20220;-96
2022/03/06 12:18:29;;;;;;;5.27;2.30;;;;;;;6.52;81.47;98948.16;4909472;29;20205;-94
2022/03/06 12:21:17;;;;;;;3.87;2.13;;;;;;;6.49;81.66;98938.69;4939474;29;20197;-95
2022/03/06 12:23:42;;;;;;;4.67;3.17;;;;;;;6.46;82.57;98944.03;4939246;29;20176;-93
2022/03/06 12:26:30;;;;;;;6.37;3.20;;;;;;;6.71;81.73;98939.53;4939840;29;20180;-96
2022/03/06 12:32:35;;;;;;;;;;;;;;;;;;;;;
2022/03/06 12:35:02;;;;;;;3.27;1.77;;;;;;;6.48;81.76;98937.00;4917063;29;20200;-94
2022/03/06 13:11:49;;;;;;;;;;;;;;;;;;;;;
2022/03/06 13:17:43;;;;;;;3.27;1.90;;;;;;;6.02;82.48;98935.31;4955695;29;20267;-95
2022/03/06 13:49:05;;;;;;;5.17;1.90;;;;;;;6.10;81.66;98927.22;4841206;29;20702;-95
2022/03/06 14:29:33;;;;;;;5.03;1.77;;;;;;;6.35;81.07;98924.50;4816673;29;20222;-93
2022/03/06 14:32:09;;;;;;;2.17;1.03;;;;;;;6.26;81.66;98924.88;4825438;29;20194;-93
2022/03/06 14:34:37;;;;;;;3.50;0.90;;;;;;;6.25;81.87;98924.03;4881086;29;20237;-93
2022/03/06 14:37:54;;;;;;;;;;;;;;;;;;;;;
2022/03/06 14:47:32;;;;;;;2.43;1.13;;;;;;;6.62;80.15;98916.47;4814592;29;20215;-95
2022/03/06 14:54:10;;;;;;;1.37;0.90;;;;;;;6.41;80.21;98919.06;4747235;29;20210;-93
2022/03/06 15:00:56;;;;;;;5.37;1.83;;;;;;;6.21;81.29;98925.03;4843108;29;20291;-94
2022/03/06 15:05:15;;;;;;;;;;;;;;;;;;;;;
2022/03/06 15:07:37;;;;;;;2.07;1.27;;;;;;;6.29;80.24;98923.00;4936478;29;20244;-92
2022/03/06 15:10:31;;;;;;;1.37;0.83;;;;;;;6.06;80.64;98917.81;4957244;29;20202;-94
2022/03/06 15:20:27;;;;;;;2.30;1.40;;;;;;;6.07;80.72;98929.94;4912532;29;20182;-92
2022/03/06 15:31:07;;;;;;;;;;;;;;;;;;;;;
2022/03/06 15:33:11;;;;;;;1.80;1.10;;;;;;;5.72;79.49;98917.34;4902245;29;20207;-91
2022/03/06 15:35:37;;;;;;;2.73;1.47;;;;;;;5.96;78.57;98906.06;4939850;29;20650;-92
2022/03/06 15:38:05;;;;;;;4.07;1.87;;;;;;;5.97;77.77;98916.44;4956306;29;20260;-93
2022/03/06 15:40:33;;;;;;;2.13;1.43;;;;;;;5.86;78.32;98930.72;4939359;29;20181;-92
2022/03/06 15:42:59;;;;;;;2.07;1.40;;;;;;;5.81;78.17;98922.22;4939362;29;20243;-91
2022/03/06 15:46:08;;;;;;;2.97;1.03;;;;;;;5.64;78.57;98919.38;4956319;29;20673;-93
2022/03/06 15:48:52;;;;;;;;;;;;;;;;;;;;;
2022/03/06 15:52:08;;;;;;;2.50;1.50;;;;;;;5.54;79.31;98929.25;4956257;29;20539;-92
2022/03/06 15:54:53;;;;;;;3.10;1.63;;;;;;;5.66;78.49;98928.00;4936100;29;20196;-92
2022/03/06 15:57:44;;;;;;;8.43;3.17;;;;;;;5.62;79.03;98931.59;4939330;29;20255;-92
2022/03/06 16:00:32;;;;;;;4.10;2.40;;;;;;;5.76;78.23;98929.34;4939291;29;20185;-91
2022/03/06 16:03:08;;;;;;;4.73;1.67;;;;;;;5.79;77.97;98919.66;4955547;29;20181;-91
2022/03/06 16:05:58;;;;;;;2.83;1.77;;;;;;;5.59;78.49;98923.00;4939317;29;20178;-91
2022/03/06 16:08:28;;;;;;;3.90;2.23;;;;;;;5.44;79.41;98928.75;4939738;29;20173;-91
2022/03/06 16:11:18;;;;;;;5.90;1.73;;;;;;;5.42;79.96;98930.53;4939399;29;20197;-91
2022/03/06 16:14:01;;;;;;;6.37;2.03;;;;;;;5.40;80.58;98937.53;4938775;29;20192;-92
2022/03/06 16:16:26;;;;;;;2.10;1.33;;;;;;;5.34;80.37;98936.91;4938532;29;20592;-90
2022/03/06 16:18:52;;;;;;;2.47;1.53;;;;;;;5.35;80.86;98938.59;4939411;29;20196;-91
2022/03/06 16:21:21;;;;;;;4.27;1.37;;;;;;;5.44;80.81;98927.91;4938816;29;20631;-92
2022/03/06 16:23:47;;;;;;;4.53;1.80;;;;;;;5.46;80.60;98942.53;4955599;29;20177;-92
2022/03/06 16:26:12;;;;;;;3.97;2.17;;;;;;;5.35;81.28;98944.66;4938744;29;20269;-91
2022/03/06 16:28:40;;;;;;;2.27;1.10;;;;;;;5.52;80.51;98941.47;4939141;29;20271;-93
2022/03/06 16:31:06;;;;;;;2.60;1.50;;;;;;;5.40;81.11;98934.94;4955856;29;20193;-92
2022/03/06 16:33:32;;;;;;;2.90;1.10;;;;;;;5.43;80.88;98939.19;4939000;29;20181;-91
2022/03/06 16:35:58;;;;;;;4.07;2.20;;;;;;;5.53;80.58;98941.41;4937181;29;20200;-91
2022/03/06 16:38:38;;;;;;;3.43;1.73;;;;;;;5.39;80.93;98938.47;4938705;29;20635;-91
2022/03/06 16:41:04;;;;;;;1.47;1.20;;;;;;;5.42;80.69;98946.13;4938888;29;20181;-92
2022/03/06 16:43:38;;;;;;;2.77;1.53;;;;;;;5.44;80.80;98943.50;4955297;29;20744;-94